Time;durP1;ratioP1;P1;durP2;ratioP2;P2;SDS_P1;SDS_P2;PMS_P1;PMS_P2;Temp;Humidity;BMP_temperature;BMP_pressure;BME280_temperature;BME280_humidity;BME280_pressure;Samples;Min_cycle;Max_cycle;Signal;HPM_P1;HPM_P2
2022/08/16 00:01:19;;;;;;;3.53;2.63;;;16.70;99.90;;;;;;5085426;28;20547;-52
2022/08/16 00:03:46;;;;;;;3.70;2.70;;;16.70;99.90;;;;;;5087410;28;20512;-50
2022/08/16 00:06:14;;;;;;;4.28;2.35;;;16.70;99.90;;;;;;5103802;28;20039;-53
2022/08/16 00:08:41;;;;;;;5.60;3.03;;;16.70;99.90;;;;;;5100577;28;20040;-52
2022/08/16 00:11:12;;;;;;;4.32;2.40;;;16.60;99.90;;;;;;5094995;28;20077;-49
2022/08/16 00:13:44;;;;;;;5.38;2.53;;;16.60;99.90;;;;;;5091795;28;20115;-50
2022/08/16 00:16:25;;;;;;;3.10;2.05;;;16.60;99.90;;;;;;5097579;28;20055;-55
2022/08/16 00:19:18;;;;;;;3.17;2.35;;;16.50;99.90;;;;;;5101015;28;20040;-51
2022/08/16 00:21:45;;;;;;;4.45;2.05;;;16.60;99.90;;;;;;5089777;28;20119;-51
2022/08/16 00:24:19;;;;;;;4.30;2.40;;;16.60;99.90;;;;;;5103893;28;20042;-55
2022/08/16 00:27:00;;;;;;;4.57;2.47;;;16.60;99.90;;;;;;5096104;28;20131;-53
2022/08/16 00:29:28;;;;;;;3.50;2.90;;;16.60;99.90;;;;;;5100492;28;20040;-51
2022/08/16 00:31:57;;;;;;;2.70;2.10;;;16.70;99.90;;;;;;5091360;28;20098;-51
2022/08/16 00:34:32;;;;;;;9.27;2.88;;;16.70;99.90;;;;;;5073003;28;20539;-52
2022/08/16 00:37:10;;;;;;;3.58;2.25;;;16.70;99.90;;;;;;5091986;28;20047;-51
2022/08/16 00:39:43;;;;;;;4.07;2.60;;;16.60;99.90;;;;;;5090564;28;20667;-54
2022/08/16 00:42:10;;;;;;;4.93;2.42;;;16.60;99.90;;;;;;5095065;28;20047;-52
2022/08/16 00:44:40;;;;;;;6.90;2.67;;;16.60;99.90;;;;;;5111776;28;20045;-56
2022/08/16 00:47:15;;;;;;;4.72;2.90;;;16.60;99.90;;;;;;5104669;28;20043;-51
2022/08/16 00:49:42;;;;;;;7.93;2.65;;;16.60;99.90;;;;;;5101922;28;20063;-52
2022/08/16 00:52:21;;;;;;;5.55;2.78;;;16.60;99.90;;;;;;5073338;28;20094;-55
2022/08/16 00:54:58;;;;;;;5.05;3.03;;;16.50;99.90;;;;;;5077784;28;20126;-53
2022/08/16 00:57:26;;;;;;;4.00;2.75;;;16.60;99.90;;;;;;5102946;28;20042;-54
2022/08/16 01:00:13;;;;;;;5.17;3.07;;;16.60;99.90;;;;;;5070999;28;20044;-52
2022/08/16 01:02:49;;;;;;;5.65;2.92;;;16.60;99.90;;;;;;5074715;28;20285;-55
2022/08/16 01:05:18;;;;;;;5.43;2.80;;;16.60;99.90;;;;;;5091523;28;20085;-52
2022/08/16 01:07:50;;;;;;;4.65;2.63;;;16.50;99.90;;;;;;5090297;28;20043;-51
2022/08/16 01:10:26;;;;;;;3.60;2.55;;;16.60;99.90;;;;;;5072950;28;20040;-52
2022/08/16 01:13:05;;;;;;;4.65;2.58;;;16.60;99.90;;;;;;5060810;28;20051;-52
2022/08/16 01:15:36;;;;;;;4.13;2.25;;;16.50;99.90;;;;;;5066390;28;20553;-51
2022/08/16 01:18:13;;;;;;;2.92;2.22;;;16.50;99.90;;;;;;5069052;28;20040;-52
2022/08/16 01:21:31;;;;;;;3.63;2.67;;;16.50;99.90;;;;;;5070723;28;20052;-50
2022/08/16 01:24:35;;;;;;;3.83;2.67;;;16.60;99.90;;;;;;5089674;28;20051;-51
2022/08/16 01:27:37;;;;;;;5.10;2.50;;;16.60;99.90;;;;;;5073529;28;20048;-54
2022/08/16 01:30:10;;;;;;;3.80;2.85;;;16.60;99.90;;;;;;5072560;28;20051;-50
2022/08/16 01:32:53;;;;;;;4.78;2.40;;;16.60;99.90;;;;;;5076089;28;20433;-50
2022/08/16 01:35:54;;;;;;;3.92;2.78;;;16.60;99.90;;;;;;5073127;28;20054;-51
2022/08/16 01:38:25;;;;;;;5.40;2.40;;;16.50;99.90;;;;;;5073143;28;20044;-53
2022/08/16 01:41:07;;;;;;;3.13;2.58;;;16.50;99.90;;;;;;5072655;28;20059;-51
2022/08/16 01:43:37;;;;;;;4.03;2.72;;;16.50;99.90;;;;;;5072411;28;20044;-50
2022/08/16 01:46:09;;;;;;;5.00;3.20;;;16.50;99.90;;;;;;5091453;28;20075;-52
2022/08/16 01:49:06;;;;;;;5.65;3.10;;;16.50;99.90;;;;;;5072615;28;20036;-50
2022/08/16 01:51:33;;;;;;;4.78;3.17;;;16.50;99.90;;;;;;5072635;28;20051;-50
2022/08/16 01:54:06;;;;;;;5.75;3.65;;;16.40;99.90;;;;;;5073203;28;20044;-52
2022/08/16 01:56:39;;;;;;;5.03;3.25;;;16.40;99.90;;;;;;5072864;28;20392;-51
2022/08/16 01:59:10;;;;;;;7.07;3.03;;;16.30;99.90;;;;;;5071991;28;20435;-50
2022/08/16 02:01:45;;;;;;;6.40;3.28;;;16.40;99.90;;;;;;5072156;28;20138;-51
2022/08/16 02:04:17;;;;;;;3.20;2.90;;;16.40;99.90;;;;;;5072405;28;20424;-49
2022/08/16 02:07:07;;;;;;;5.78;2.90;;;16.40;99.90;;;;;;5088230;28;20741;-52
2022/08/16 02:09:37;;;;;;;4.40;3.35;;;16.40;99.90;;;;;;5089429;28;20500;-50
2022/08/16 02:12:07;;;;;;;5.88;3.13;;;16.40;99.90;;;;;;5071014;28;20523;-49
2022/08/16 02:14:54;;;;;;;3.08;2.35;;;16.40;99.90;;;;;;5090302;28;20048;-49
2022/08/16 02:17:23;;;;;;;5.28;2.72;;;16.40;99.90;;;;;;5072690;28;20044;-51
2022/08/16 02:19:54;;;;;;;4.43;2.97;;;16.40;99.90;;;;;;5088859;28;20043;-50
2022/08/16 02:22:27;;;;;;;4.30;3.15;;;16.40;99.90;;;;;;5089248;28;20565;-51
2022/08/16 02:25:07;;;;;;;4.97;2.20;;;16.40;99.90;;;;;;5072431;28;20416;-50
2022/08/16 02:27:40;;;;;;;3.35;2.53;;;16.40;99.90;;;;;;5089278;28;20040;-49
2022/08/16 02:30:13;;;;;;;3.55;2.67;;;16.40;99.90;;;;;;5089008;28;20068;-50
2022/08/16 02:33:03;;;;;;;3.97;2.47;;;16.40;99.90;;;;;;5072302;28;20118;-52
2022/08/16 02:35:33;;;;;;;4.38;2.80;;;16.40;99.90;;;;;;5072154;28;20044;-50
2022/08/16 02:38:19;;;;;;;5.70;2.63;;;16.30;99.90;;;;;;5072027;28;20036;-50
2022/08/16 02:40:47;;;;;;;4.15;2.63;;;16.30;99.90;;;;;;5071182;28;20093;-50
2022/08/16 02:43:14;;;;;;;5.53;2.67;;;16.40;99.90;;;;;;5072197;28;20056;-53
2022/08/16 02:45:42;;;;;;;5.30;2.78;;;16.40;99.90;;;;;;5089417;28;20123;-51
2022/08/16 02:48:09;;;;;;;2.67;2.22;;;16.30;99.90;;;;;;5090083;28;20067;-50
2022/08/16 02:50:59;;;;;;;3.83;2.38;;;16.30;99.90;;;;;;5070516;28;20546;-51
2022/08/16 02:53:35;;;;;;;5.55;2.88;;;16.30;99.90;;;;;;5069502;28;20040;-50
2022/08/16 02:56:04;;;;;;;3.67;2.30;;;16.30;99.90;;;;;;5055800;28;20044;-50
2022/08/16 02:58:36;;;;;;;3.22;2.40;;;16.30;99.90;;;;;;5072263;28;20094;-49
2022/08/16 03:01:05;;;;;;;4.38;2.60;;;16.30;99.90;;;;;;5072964;28;20044;-51
2022/08/16 03:03:33;;;;;;;3.72;2.42;;;16.30;99.90;;;;;;5075386;28;20113;-50
2022/08/16 03:06:22;;;;;;;;;;;16.30;99.90;;;;;;5092966;28;20496;-49
2022/08/16 03:09:18;;;;;;;3.78;2.25;;;16.30;99.90;;;;;;5073066;28;19931;-51
2022/08/16 03:11:49;;;;;;;3.90;2.42;;;16.40;99.90;;;;;;5066313;28;20055;-49
2022/08/16 03:14:17;;;;;;;4.35;2.75;;;16.30;99.90;;;;;;5075274;28;20536;-50
2022/08/16 03:16:47;;;;;;;5.05;2.67;;;16.30;99.90;;;;;;5072220;28;20044;-49
2022/08/16 03:19:28;;;;;;;5.28;2.58;;;16.30;99.90;;;;;;5074988;28;20082;-51
2022/08/16 03:22:17;;;;;;;5.38;3.03;;;16.20;99.90;;;;;;5074900;28;20122;-52
2022/08/16 03:24:55;;;;;;;5.57;2.70;;;16.20;99.90;;;;;;5068386;28;20048;-50
2022/08/16 03:27:26;;;;;;;5.60;2.67;;;16.10;99.90;;;;;;5091894;28;20058;-49
2022/08/16 03:30:06;;;;;;;3.75;2.53;;;16.10;99.90;;;;;;5074052;28;20051;-49
2022/08/16 03:32:48;;;;;;;3.45;2.47;;;16.10;99.90;;;;;;5071427;28;20382;-54
2022/08/16 03:35:21;;;;;;;4.63;2.75;;;16.10;99.90;;;;;;5084355;28;20052;-51
2022/08/16 03:37:56;;;;;;;3.85;2.80;;;16.10;99.90;;;;;;5074960;28;20112;-54
2022/08/16 03:40:34;;;;;;;3.22;2.60;;;16.10;99.90;;;;;;5090600;28;20492;-50
2022/08/16 03:43:10;;;;;;;6.20;2.78;;;16.10;99.90;;;;;;5074523;28;20542;-50
2022/08/16 03:45:51;;;;;;;7.72;3.15;;;16.10;99.90;;;;;;5074298;28;20419;-52
2022/08/16 03:48:24;;;;;;;3.92;2.95;;;16.10;99.90;;;;;;5074619;28;20078;-50
2022/08/16 03:51:12;;;;;;;4.40;3.10;;;16.10;99.90;;;;;;5073137;28;20134;-50
2022/08/16 03:53:46;;;;;;;7.32;3.10;;;16.10;99.90;;;;;;5074649;28;20599;-53
2022/08/16 03:56:28;;;;;;;3.92;2.80;;;16.00;99.90;;;;;;5074459;28;20086;-50
2022/08/16 03:58:57;;;;;;;6.00;2.95;;;16.00;99.90;;;;;;5090042;22;20458;-51
2022/08/16 04:01:28;;;;;;;3.97;2.60;;;16.00;99.90;;;;;;5112812;27;20035;-52
2022/08/16 04:03:56;;;;;;;4.38;2.45;;;16.00;99.90;;;;;;5125159;27;20441;-50
2022/08/16 04:06:23;;;;;;;;;;;16.00;99.90;;;;;;5119142;27;20406;-50
2022/08/16 04:08:50;;;;;;;3.30;2.50;;;16.10;99.90;;;;;;5120969;27;19920;-50
2022/08/16 04:11:17;;;;;;;4.60;2.28;;;16.00;99.90;;;;;;5093780;28;20047;-52
2022/08/16 04:13:46;;;;;;;6.00;2.83;;;16.00;99.90;;;;;;5094742;28;20130;-50
2022/08/16 04:16:36;;;;;;;3.45;2.35;;;16.00;99.90;;;;;;5093333;28;20550;-51
2022/08/16 04:19:26;;;;;;;3.30;2.30;;;16.00;99.90;;;;;;5101087;28;20063;-52
2022/08/16 04:21:58;;;;;;;5.05;2.22;;;16.00;99.90;;;;;;5091617;28;20046;-51
2022/08/16 04:24:29;;;;;;;6.90;2.50;;;16.00;99.90;;;;;;5093968;28;20040;-50
2022/08/16 04:26:57;;;;;;;4.10;2.45;;;16.10;99.90;;;;;;5090630;28;20430;-52
2022/08/16 04:29:26;;;;;;;3.00;2.20;;;16.00;99.90;;;;;;5077519;28;20039;-50
2022/08/16 04:32:09;;;;;;;7.80;2.47;;;16.00;99.90;;;;;;5093605;28;20507;-49
2022/08/16 04:34:40;;;;;;;3.28;2.20;;;16.00;99.90;;;;;;5093358;28;20043;-50
2022/08/16 04:37:08;;;;;;;4.90;2.42;;;15.90;99.90;;;;;;5077176;28;20044;-50
2022/08/16 04:39:40;;;;;;;3.00;1.98;;;15.90;99.90;;;;;;5094107;28;20046;-49
2022/08/16 04:42:22;;;;;;;3.10;2.13;;;16.10;99.90;;;;;;5090942;28;20039;-50
2022/08/16 04:44:57;;;;;;;5.25;2.22;;;15.90;99.90;;;;;;5112032;28;20040;-52
2022/08/16 04:47:30;;;;;;;3.28;2.25;;;15.90;99.90;;;;;;5093866;28;20450;-49
2022/08/16 04:50:05;;;;;;;2.20;1.95;;;15.90;99.90;;;;;;5093076;28;20144;-49
2022/08/16 04:52:34;;;;;;;2.13;1.90;;;15.90;99.90;;;;;;5093353;28;20458;-51
2022/08/16 04:55:06;;;;;;;3.03;2.00;;;15.90;99.90;;;;;;5093184;28;20546;-51
2022/08/16 04:57:35;;;;;;;4.18;2.10;;;15.90;99.90;;;;;;5091547;28;20082;-53
2022/08/16 05:00:07;;;;;;;2.65;2.30;;;15.80;99.90;;;;;;5092186;28;20043;-50
2022/08/16 05:02:54;;;;;;;4.05;2.15;;;15.90;99.90;;;;;;5076981;28;20651;-52
2022/08/16 05:05:25;;;;;;;2.53;1.83;;;15.90;99.90;;;;;;5111577;28;20388;-51
2022/08/16 05:08:03;;;;;;;4.57;2.40;;;15.80;99.90;;;;;;5093849;28;20500;-51
2022/08/16 05:11:03;;;;;;;3.60;2.55;;;15.90;99.90;;;;;;5090153;28;20040;-50
2022/08/16 05:13:34;;;;;;;5.82;2.80;;;15.80;99.90;;;;;;5093447;28;20482;-50
2022/08/16 05:16:09;;;;;;;3.95;2.30;;;15.80;99.90;;;;;;5093244;28;20043;-50
2022/08/16 05:18:38;;;;;;;4.40;2.50;;;15.80;99.90;;;;;;5089601;28;20043;-50
2022/08/16 05:21:08;;;;;;;3.63;2.33;;;15.90;99.90;;;;;;5092061;28;20046;-51
2022/08/16 05:23:41;;;;;;;5.00;2.78;;;15.90;99.90;;;;;;5093614;28;20512;-50
2022/08/16 05:26:18;;;;;;;3.13;2.67;;;15.90;99.90;;;;;;5111786;28;20043;-50
2022/08/16 05:28:48;;;;;;;5.05;2.55;;;15.90;99.90;;;;;;5093264;28;20039;-50
2022/08/16 05:31:26;;;;;;;3.95;2.60;;;16.00;99.90;;;;;;5092733;28;20503;-50
2022/08/16 05:33:56;;;;;;;4.88;2.22;;;16.00;99.90;;;;;;5093168;28;20043;-50
2022/08/16 05:36:24;;;;;;;4.00;2.45;;;16.00;99.90;;;;;;5111608;28;20056;-49
2022/08/16 05:42:39;;;;;;;3.80;2.40;;;16.20;99.90;;;;;;5071978;28;20040;-53
2022/08/16 05:45:13;;;;;;;4.70;2.65;;;16.30;99.90;;;;;;5091438;28;20055;-51
2022/08/16 05:47:52;;;;;;;3.80;2.80;;;16.30;99.90;;;;;;5092379;28;20063;-51
2022/08/16 05:50:36;;;;;;;9.25;2.78;;;16.40;99.90;;;;;;5092225;28;20054;-50
2022/08/16 05:53:07;;;;;;;3.92;2.50;;;16.60;99.90;;;;;;5091743;28;20411;-51
2022/08/16 05:55:42;;;;;;;3.33;2.42;;;16.60;99.90;;;;;;5092827;28;20460;-51
2022/08/16 05:58:09;;;;;;;5.03;2.53;;;16.60;99.90;;;;;;5110916;28;20048;-50
2022/08/16 06:00:56;;;;;;;5.00;2.22;;;16.70;99.90;;;;;;5091955;28;20039;-50
2022/08/16 06:03:24;;;;;;;8.68;2.67;;;16.80;99.90;;;;;;5092037;28;20058;-49
2022/08/16 06:05:59;;;;;;;9.40;2.50;;;16.90;99.90;;;;;;5092342;28;20051;-52
2022/08/16 06:08:27;;;;;;;5.28;2.33;;;16.80;99.90;;;;;;5092750;28;20043;-51
2022/08/16 06:11:09;;;;;;;2.92;2.08;;;16.80;99.90;;;;;;5090856;28;20073;-51
2022/08/16 06:13:42;;;;;;;3.97;2.75;;;16.60;99.90;;;;;;5092621;28;20071;-51
2022/08/16 06:16:13;;;;;;;3.08;2.33;;;16.50;99.90;;;;;;5092733;28;20047;-49
2022/08/16 06:18:45;;;;;;;4.78;2.72;;;16.50;99.90;;;;;;5092305;28;20040;-54
2022/08/16 06:21:14;;;;;;;3.45;2.47;;;16.30;99.90;;;;;;5091148;28;20046;-49
2022/08/16 06:23:50;;;;;;;3.83;2.47;;;16.40;99.90;;;;;;5092475;28;20427;-50
2022/08/16 06:26:21;;;;;;;3.20;2.45;;;16.30;99.90;;;;;;5092823;28;20047;-49
2022/08/16 06:28:49;;;;;;;2.92;2.50;;;16.30;99.90;;;;;;5090346;28;20131;-50
2022/08/16 06:31:24;;;;;;;3.28;2.45;;;16.40;99.90;;;;;;5095518;28;20043;-50
2022/08/16 06:33:54;;;;;;;6.03;2.70;;;16.40;99.90;;;;;;5096284;28;20089;-50
2022/08/16 06:36:22;;;;;;;3.83;2.40;;;16.50;99.90;;;;;;5096505;28;20043;-53
2022/08/16 06:39:04;;;;;;;3.17;2.67;;;16.80;99.90;;;;;;5095699;28;20044;-52
2022/08/16 06:41:50;;;;;;;4.10;2.63;;;16.90;99.90;;;;;;5095254;28;20039;-52
2022/08/16 06:44:38;;;;;;;5.60;2.78;;;17.10;99.90;;;;;;5114162;28;20055;-49
2022/08/16 06:47:13;;;;;;;3.22;2.85;;;17.20;99.90;;;;;;5095584;28;20044;-53
2022/08/16 06:49:44;;;;;;;6.00;3.05;;;17.10;99.90;;;;;;5095650;28;20043;-49
2022/08/16 06:52:22;;;;;;;4.57;2.50;;;17.10;99.90;;;;;;5096056;28;20465;-50
2022/08/16 06:55:11;;;;;;;;;;;17.20;99.90;;;;;;5095981;28;20087;-52
2022/08/16 06:57:43;;;;;;;2.78;2.45;;;17.40;99.90;;;;;;5095989;28;19926;-49
2022/08/16 07:00:13;;;;;;;3.47;2.90;;;17.50;99.90;;;;;;5074316;28;20134;-50
2022/08/16 07:02:58;;;;;;;2.45;2.22;;;17.70;99.90;;;;;;5075812;28;20136;-51
2022/08/16 07:05:30;;;;;;;4.60;2.70;;;17.90;99.90;;;;;;5090267;28;20393;-52
2022/08/16 07:08:14;;;;;;;2.53;2.33;;;18.10;99.90;;;;;;5088006;28;20419;-51
2022/08/16 07:10:45;;;;;;;4.40;2.55;;;18.30;99.90;;;;;;5094866;28;20492;-50
2022/08/16 07:13:13;;;;;;;3.08;2.38;;;18.30;99.90;;;;;;5095581;28;20504;-51
2022/08/16 07:16:02;;;;;;;5.40;2.00;;;18.30;99.90;;;;;;5094588;28;20063;-51
2022/08/16 07:18:32;;;;;;;5.63;2.72;;;18.40;99.90;;;;;;5095734;28;20039;-51
2022/08/16 07:20:59;;;;;;;4.43;2.83;;;18.50;99.90;;;;;;5094477;28;20066;-51
2022/08/16 07:23:30;;;;;;;4.38;2.42;;;18.80;99.90;;;;;;5091379;28;20032;-50
2022/08/16 07:26:10;;;;;;;5.63;2.65;;;18.70;99.90;;;;;;5094531;28;20051;-54
2022/08/16 07:28:52;;;;;;;3.80;2.38;;;18.90;99.90;;;;;;5095283;28;20439;-50
2022/08/16 07:31:20;;;;;;;4.25;2.40;;;18.80;99.90;;;;;;5091702;28;20057;-50
2022/08/16 07:33:48;;;;;;;5.15;3.03;;;18.80;99.90;;;;;;5095059;28;20054;-51
2022/08/16 07:36:28;;;;;;;4.55;2.47;;;19.00;99.90;;;;;;5095185;28;20507;-51
2022/08/16 07:38:57;;;;;;;4.25;2.90;;;19.10;99.90;;;;;;5095109;28;20035;-52
2022/08/16 07:41:27;;;;;;;4.32;3.38;;;19.10;99.90;;;;;;5110919;28;20032;-51
2022/08/16 07:43:58;;;;;;;7.85;3.20;;;19.10;99.90;;;;;;5094955;28;20134;-51
2022/08/16 07:46:27;;;;;;;4.72;3.15;;;19.00;99.90;;;;;;5094882;28;20138;-52
2022/08/16 07:49:12;;;;;;;4.30;3.17;;;19.10;99.90;;;;;;5094388;28;20071;-51
2022/08/16 07:51:41;;;;;;;6.03;2.97;;;19.10;99.90;;;;;;5094238;28;20044;-51
2022/08/16 07:54:10;;;;;;;3.70;2.80;;;19.40;99.90;;;;;;5094881;28;20036;-51
2022/08/16 07:56:49;;;;;;;5.07;3.15;;;19.50;99.90;;;;;;5095073;28;20411;-50
2022/08/16 07:59:16;;;;;;;6.32;3.15;;;19.40;99.90;;;;;;5094072;28;20127;-49
2022/08/16 08:01:43;;;;;;;3.95;2.97;;;19.60;99.90;;;;;;5094040;28;20032;-50
2022/08/16 08:04:12;;;;;;;3.92;3.17;;;19.60;99.90;;;;;;5094864;28;20571;-51
2022/08/16 08:06:41;;;;;;;4.55;2.92;;;19.80;99.90;;;;;;5091019;28;20040;-54
2022/08/16 08:09:14;;;;;;;5.18;3.35;;;19.80;99.90;;;;;;5104666;28;20059;-51
2022/08/16 08:11:41;;;;;;;4.40;3.20;;;19.90;99.90;;;;;;5112423;28;20047;-53
2022/08/16 08:14:33;;;;;;;3.30;3.00;;;20.00;99.90;;;;;;5090809;28;20051;-52
2022/08/16 08:17:00;;;;;;;5.22;3.05;;;20.20;99.90;;;;;;5094211;28;20047;-49
2022/08/16 08:19:30;;;;;;;3.65;3.22;;;20.40;99.90;;;;;;5094164;28;20504;-51
2022/08/16 08:21:57;;;;;;;7.85;3.50;;;20.50;99.90;;;;;;5093641;28;20488;-53
2022/08/16 08:24:45;;;;;;;6.03;3.45;;;20.60;99.90;;;;;;5093919;28;20504;-50
2022/08/16 08:27:13;;;;;;;3.50;2.85;;;20.60;99.90;;;;;;5086435;28;20051;-51
2022/08/16 08:29:49;;;;;;;5.38;3.33;;;20.60;99.90;;;;;;5093723;28;20063;-52
2022/08/16 08:32:37;;;;;;;6.82;3.33;;;20.70;99.90;;;;;;5093693;28;20052;-50
2022/08/16 08:35:24;;;;;;;4.50;3.22;;;21.00;99.90;;;;;;5073806;28;20047;-50
2022/08/16 08:37:54;;;;;;;3.03;2.60;;;21.20;99.90;;;;;;5073653;28;20500;-50
2022/08/16 08:40:27;;;;;;;4.00;3.00;;;21.10;99.90;;;;;;5087884;28;20036;-50
2022/08/16 08:42:56;;;;;;;2.97;2.50;;;21.20;99.90;;;;;;5112372;28;20118;-51
2022/08/16 08:45:28;;;;;;;3.90;3.00;;;21.20;99.90;;;;;;5094125;28;20063;-53
2022/08/16 08:48:14;;;;;;;4.28;3.40;;;21.40;99.90;;;;;;5089279;28;20127;-53
2022/08/16 08:51:08;;;;;;;4.18;2.88;;;21.50;99.90;;;;;;5092444;28;20046;-53
2022/08/16 08:54:03;;;;;;;;;;;21.60;99.90;;;;;;5109157;28;20054;-53
2022/08/16 08:56:36;;;;;;;5.63;2.80;;;21.80;99.90;;;;;;5089517;28;19924;-50
2022/08/16 08:59:26;;;;;;;2.95;2.70;;;22.00;99.90;;;;;;5087127;28;20044;-53
2022/08/16 09:01:54;;;;;;;4.85;2.95;;;22.20;99.90;;;;;;5092637;28;20065;-50
2022/08/16 09:04:25;;;;;;;3.67;2.40;;;22.30;99.90;;;;;;5093405;28;20052;-53
2022/08/16 09:06:53;;;;;;;2.60;2.40;;;22.50;99.90;;;;;;5090883;28;20526;-53
2022/08/16 09:09:22;;;;;;;4.22;2.67;;;22.50;99.90;;;;;;5093153;28;20039;-50
2022/08/16 09:11:55;;;;;;;4.13;2.35;;;22.50;99.90;;;;;;5092897;28;20042;-54
2022/08/16 09:14:55;;;;;;;6.15;2.75;;;22.60;99.90;;;;;;5108514;28;20059;-50
2022/08/16 09:17:26;;;;;;;2.88;2.40;;;22.70;99.90;;;;;;5093400;28;20055;-50
2022/08/16 09:20:14;;;;;;;4.00;2.90;;;22.80;99.90;;;;;;5092534;28;20040;-51
2022/08/16 09:22:42;;;;;;;2.95;2.40;;;22.70;99.90;;;;;;5092364;28;20082;-50
2022/08/16 09:25:17;;;;;;;3.78;2.42;;;22.80;99.90;;;;;;5085709;28;20051;-51
2022/08/16 09:28:02;;;;;;;2.72;2.53;;;22.90;99.90;;;;;;5093135;28;20043;-51
2022/08/16 09:30:43;;;;;;;2.75;2.25;;;22.80;99.90;;;;;;5091721;28;20048;-50
2022/08/16 09:33:17;;;;;;;3.10;2.47;;;22.90;99.90;;;;;;5103015;28;20514;-50
2022/08/16 09:35:45;;;;;;;3.38;2.50;;;22.90;99.90;;;;;;5111718;28;20031;-51
2022/08/16 09:38:19;;;;;;;5.47;2.35;;;23.10;99.90;;;;;;5105977;28;20035;-50
2022/08/16 09:40:59;;;;;;;6.00;2.50;;;23.30;99.90;;;;;;5091852;28;20058;-51
2022/08/16 09:43:26;;;;;;;3.35;2.30;;;23.40;99.90;;;;;;5111422;28;20055;-54
2022/08/16 09:46:13;;;;;;;2.60;2.10;;;23.60;99.90;;;;;;5103121;28;20040;-50
2022/08/16 09:49:00;;;;;;;3.85;2.90;;;23.50;99.90;;;;;;5110829;28;20564;-51
2022/08/16 09:51:29;;;;;;;4.15;2.72;;;23.50;99.90;;;;;;5110571;28;20570;-52
2022/08/16 09:54:04;;;;;;;2.72;2.30;;;23.50;99.90;;;;;;5110288;28;20042;-53
2022/08/16 09:56:34;;;;;;;4.75;2.28;;;23.60;99.90;;;;;;5111296;28;20408;-53
2022/08/16 10:02:00;;;;;;;2.53;2.30;;;24.10;99.90;;;;;;5055573;28;20045;-51
2022/08/16 10:04:47;;;;;;;3.60;2.55;;;24.30;99.90;;;;;;5052586;28;20453;-49
2022/08/16 10:07:21;;;;;;;4.13;2.70;;;24.40;99.90;;;;;;5054643;28;20045;-49
2022/08/16 10:09:48;;;;;;;2.63;2.38;;;24.60;99.90;;;;;;5054123;28;20498;-49
2022/08/16 10:15:11;;;;;;;2.90;2.60;;;24.60;99.90;;;;;;5066023;28;20048;-49
2022/08/16 10:17:45;;;;;;;5.13;2.28;;;24.60;99.90;;;;;;5074407;28;20048;-48
2022/08/16 10:20:36;;;;;;;3.72;2.38;;;24.60;99.90;;;;;;5065715;28;20041;-49
2022/08/16 10:23:06;;;;;;;3.53;2.30;;;24.80;99.90;;;;;;5065775;28;20055;-49
2022/08/16 10:25:38;;;;;;;4.82;2.63;;;24.70;99.90;;;;;;5074435;28;20076;-49
2022/08/16 10:28:27;;;;;;;6.38;2.40;;;24.60;99.90;;;;;;5069365;28;20567;-49
2022/08/16 10:30:58;;;;;;;4.88;2.50;;;24.70;99.90;;;;;;5062851;28;20056;-48
2022/08/16 10:33:26;;;;;;;3.28;2.38;;;25.00;99.90;;;;;;5074454;28;20041;-48
2022/08/16 10:35:56;;;;;;;5.55;2.50;;;25.00;99.90;;;;;;5074175;28;20041;-50
2022/08/16 10:38:29;;;;;;;5.97;3.25;;;25.00;99.90;;;;;;5062159;28;20044;-49
2022/08/16 10:40:59;;;;;;;3.25;2.70;;;25.10;99.90;;;;;;5070927;28;20055;-48
2022/08/16 10:43:26;;;;;;;3.58;2.78;;;25.00;99.90;;;;;;5074104;28;20048;-49
2022/08/16 10:45:56;;;;;;;2.50;2.30;;;25.10;99.90;;;;;;5054053;28;20519;-49
2022/08/16 10:48:27;;;;;;;2.83;2.40;;;25.00;99.90;;;;;;5067745;28;20054;-51
2022/08/16 10:50:59;;;;;;;2.30;2.08;;;25.10;99.90;;;;;;5055102;28;20487;-49
2022/08/16 10:53:27;;;;;;;2.75;2.17;;;25.20;99.90;;;;;;5073303;28;20044;-49
2022/08/16 10:56:01;;;;;;;2.10;1.90;;;25.10;99.90;;;;;;5062532;28;20516;-49
2022/08/16 10:58:29;;;;;;;2.80;2.40;;;25.10;99.90;;;;;;5067615;28;20060;-48
2022/08/16 11:01:04;;;;;;;3.28;2.25;;;25.20;99.90;;;;;;5072767;28;20378;-49
2022/08/16 11:03:53;;;;;;;6.03;2.30;;;25.30;99.90;;;;;;5050136;28;20517;-47
2022/08/16 11:06:24;;;;;;;3.35;1.98;;;25.40;99.90;;;;;;5073534;28;20532;-47
2022/08/16 11:08:56;;;;;;;3.50;2.00;;;25.50;99.20;;;;;;5073496;28;20401;-49
2022/08/16 11:11:44;;;;;;;1.92;1.73;;;25.70;99.10;;;;;;5057006;28;20111;-48
2022/08/16 11:14:32;;;;;;;2.25;1.67;;;25.70;97.70;;;;;;5053104;28;20521;-47
2022/08/16 11:17:01;;;;;;;2.15;1.88;;;25.60;98.40;;;;;;5053294;28;20051;-49
2022/08/16 11:19:40;;;;;;;3.75;1.80;;;25.80;98.30;;;;;;5056278;28;20064;-47
2022/08/16 11:22:27;;;;;;;2.85;1.70;;;26.00;98.80;;;;;;5061014;28;20109;-47
2022/08/16 11:25:17;;;;;;;2.53;1.95;;;26.20;98.20;;;;;;5073178;28;20115;-46
2022/08/16 11:28:06;;;;;;;2.33;2.13;;;26.40;97.70;;;;;;5067275;28;20454;-48
2022/08/16 11:30:33;;;;;;;1.95;1.70;;;26.70;96.80;;;;;;5066925;28;20064;-47
2022/08/16 11:33:07;;;;;;;2.63;1.90;;;26.70;97.20;;;;;;5073210;28;20116;-46
2022/08/16 11:35:36;;;;;;;2.33;1.38;;;26.90;97.00;;;;;;5067156;28;20045;-48
2022/08/16 11:38:23;;;;;;;2.47;1.70;;;27.00;97.10;;;;;;5054806;28;20049;-47
2022/08/16 11:41:10;;;;;;;1.75;1.65;;;27.20;96.00;;;;;;5051710;28;20486;-47
2022/08/16 11:43:40;;;;;;;2.67;2.15;;;27.30;95.30;;;;;;5052474;28;20056;-48
2022/08/16 11:46:10;;;;;;;1.52;1.42;;;27.40;93.10;;;;;;5063983;28;20119;-47
2022/08/16 11:48:57;;;;;;;1.67;1.55;;;27.30;93.60;;;;;;5072787;28;20049;-49
2022/08/16 11:51:23;;;;;;;1.60;1.50;;;27.40;94.20;;;;;;5067764;28;20044;-48
2022/08/16 11:53:50;;;;;;;3.75;1.70;;;27.50;94.10;;;;;;5061097;28;20048;-47
2022/08/16 11:56:17;;;;;;;;;;;27.60;92.00;;;;;;5072812;28;20115;-48
2022/08/16 11:59:05;;;;;;;5.25;1.70;;;27.80;91.60;;;;;;5072489;28;20438;-49
2022/08/16 12:01:32;;;;;;;3.22;1.70;;;27.70;92.50;;;;;;5063923;28;20086;-47
2022/08/16 12:04:20;;;;;;;1.90;1.67;;;27.70;92.10;;;;;;5058066;28;20053;-47
2022/08/16 12:06:48;;;;;;;3.53;1.95;;;27.80;91.00;;;;;;5072484;28;20055;-48
2022/08/16 12:09:19;;;;;;;2.05;1.85;;;27.90;92.00;;;;;;5066976;28;20044;-47
2022/08/16 12:11:47;;;;;;;2.10;1.90;;;28.10;92.00;;;;;;5062985;28;20075;-50
2022/08/16 12:14:20;;;;;;;2.13;1.85;;;28.10;90.80;;;;;;5072002;28;20033;-47
2022/08/16 12:16:51;;;;;;;1.90;1.63;;;28.20;91.20;;;;;;5063309;28;20036;-47
2022/08/16 12:19:24;;;;;;;3.17;2.00;;;28.30;91.80;;;;;;5063808;28;20032;-46
2022/08/16 12:22:00;;;;;;;;;;;28.50;90.90;;;;;;5071695;28;20147;-47
2022/08/16 12:24:31;;;;;;;4.40;1.80;;;28.50;90.90;;;;;;5072432;28;19920;-47
2022/08/16 12:26:58;;;;;;;4.30;1.77;;;28.40;89.70;;;;;;5066779;28;20049;-47
2022/08/16 12:29:26;;;;;;;2.00;1.80;;;28.50;89.10;;;;;;5065603;28;20123;-49
2022/08/16 12:31:55;;;;;;;3.40;1.92;;;28.60;89.00;;;;;;5071422;28;20431;-47
2022/08/16 12:34:42;;;;;;;1.90;1.70;;;28.70;87.70;;;;;;5072224;28;20039;-48
2022/08/16 12:37:18;;;;;;;5.97;2.85;;;28.90;88.70;;;;;;5064005;28;20081;-48
2022/08/16 12:39:45;;;;;;;2.05;1.70;;;29.00;85.00;;;;;;5068332;28;20044;-47
2022/08/16 12:42:18;;;;;;;5.20;1.80;;;28.90;83.60;;;;;;5053726;28;20040;-48
2022/08/16 12:44:46;;;;;;;4.72;1.90;;;29.00;83.50;;;;;;5052223;28;20501;-47
2022/08/16 12:49:59;;;;;;;3.83;1.73;;;29.40;80.70;;;;;;5070607;28;20111;-47
2022/08/16 12:52:29;;;;;;;2.13;1.92;;;29.50;78.60;;;;;;5071508;28;20051;-47
2022/08/16 12:55:00;;;;;;;7.15;2.00;;;29.30;76.40;;;;;;5068347;28;20052;-48
2022/08/16 12:57:27;;;;;;;2.67;1.60;;;29.40;79.90;;;;;;5062906;28;20060;-47
2022/08/16 13:00:09;;;;;;;3.13;2.00;;;29.50;78.40;;;;;;5070466;28;20123;-47
2022/08/16 13:02:36;;;;;;;3.15;2.00;;;29.70;77.00;;;;;;5066263;28;20128;-48
2022/08/16 13:05:04;;;;;;;;;;;29.80;77.30;;;;;;5062318;28;20465;-47
2022/08/16 13:07:33;;;;;;;3.72;1.95;;;29.90;73.60;;;;;;5071032;28;20015;-50
2022/08/16 13:10:13;;;;;;;4.53;1.80;;;30.00;74.80;;;;;;5070678;28;20044;-47
2022/08/16 13:12:59;;;;;;;2.53;1.50;;;30.00;72.20;;;;;;5063017;28;20060;-47
2022/08/16 13:15:27;;;;;;;;;;;29.80;72.90;;;;;;5063190;28;20044;-47
2022/08/16 13:17:54;;;;;;;2.20;1.48;;;29.70;73.40;;;;;;5071219;28;19928;-47
2022/08/16 13:20:24;;;;;;;2.40;1.75;;;29.80;74.40;;;;;;5069061;28;20528;-48
2022/08/16 13:22:57;;;;;;;3.03;1.88;;;29.90;74.10;;;;;;5057482;28;20466;-49
2022/08/16 13:25:26;;;;;;;2.75;2.03;;;30.00;71.90;;;;;;5070883;28;20041;-47
2022/08/16 13:27:55;;;;;;;2.05;1.73;;;30.00;68.20;;;;;;5071000;28;20048;-47
2022/08/16 13:30:33;;;;;;;1.92;1.77;;;29.90;69.90;;;;;;5062484;28;20055;-47
2022/08/16 13:33:04;;;;;;;4.20;1.98;;;30.00;70.40;;;;;;5052774;28;20531;-47
2022/08/16 13:35:38;;;;;;;2.92;1.95;;;30.20;68.40;;;;;;5070639;28;20037;-47
2022/08/16 13:38:09;;;;;;;1.88;1.70;;;30.20;71.30;;;;;;5061670;28;20114;-47
2022/08/16 13:40:55;;;;;;;3.30;2.10;;;30.20;71.60;;;;;;5061582;28;20037;-49